Aérodrome :
LOGIN :

S'inscrire | Disclaimer

   EN    FR    IT 

 










Légende :    VFR   VFR Marginal   IFR   IFR Intensif   IFR Très Intensif
Visi : 
Plafond : 
>= 8 km
>= 3000ft
5 à 8 km
1000 à 3000 ft
1500m à 5 km
500 à 1000 ft
800 à 1500m
200 à 500 ft
< 800m
< 200 ft
Symboles :   Orages  Brouillard  Fortes neiges  Fortes précipitations  Vent > 20 kt
SIGMETs :   Divers  Orages  Givrage  Turbulence  Onde Orograph.  Cendres Volcan.







- Altitude de l'aérodrome : 1521 ft
- Code IATA : NCY
- Voir les cartes d'approche


LFLP - Annecy

DERNIER METAR :
  • 181830Z AUTO 04001KT CAVOK 00/M01 Q1020 NOSIG

METARs EXPIRÉS :
  • 181800Z AUTO 01003KT CAVOK 01/M00 Q1020 NOSIG
  • 181730Z AUTO VRB02KT CAVOK 01/M00 Q1020 NOSIG
  • 181700Z AUTO VRB03KT CAVOK 01/00 Q1020 NOSIG
  • 181630Z AUTO VRB02KT CAVOK 02/00 Q1020 NOSIG
  • 181600Z AUTO VRB01KT CAVOK 03/01 Q1020 NOSIG

TAF TAF LFLP
Valide du 18 à 15h jusqu'au 19 à 15h UTC


181400Z 1815/1915 VRB03KT CAVOK
BECMG 1815/1817 34005KT
BECMG 1906/1908 OVC050
TEMPO 1906/1915 8000 -RA OVC040
PROB40
TEMPO 1910/1914 6000 RA SCT025 OVC035
Pas de NOTAMs connus pour ce terrain.
2 SIGMETs publiés pour la FIR Marseille (LFMM) :
 
Turbulence forte
LFMM SIGMET 3 VALID 181600/182000 LFPW
LFMM MARSEILLE FIR/UIR SEV TURB FCST WI N4630 E00430 - N4630 E00530 - N4445 E00515 - N4445 E00430 - N4630 E00430 SFC/FL050 STNR NC=
Turbulence forte
LFMM SIGMET 2 VALID 181600/182000 LFPW
LFMM MARSEILLE FIR/UIR SEV TURB FCST WI N4300 E00230 - N4500 E00245 - N4430 E00400 - N4300 E00230 SFC/FL060 STNR WKN=



MET'MAP, la Météo Aéronautique d'un coup d'oeil ! - Copyright ORBIFLY Décembre 2007 - Disclaimer

ORBIFLY MET'MAP TEAM :

Programmation & Développement : Alexandra Zaïnal
Conception & Développement : Baudouin d'Aumeries
Co-Programmation & Développement : Marc-Olivier Méhu
Soutien technique & logistique : Manuel Goepfert

Contact : metmap@orbifly.com




SOURCES & CREDITS :

   NOAA